x

Tanner Bank - 121nm West Of San Diego, Ca (46047) Wave Buoy

3:50 - Wed 30th Jul 2014 All times are PDT. -7 hours from GMT.

  • Sig Wave height 4.9ft
  • Swell Direction
  • Peak Period 8s
  • Average Period 6s
  • Wind
    18mph, 22mph gusts
  • Sea Temp 68°f
  • Air Temp 67°f
  • Sea Pressure 1014.7mb
  • Tanner Bank - 121nm West Of San Diego, Ca
  • Tanner Bank - 121nm West Of San Diego, Ca

More Historic Weather Station data

Upgrade to MSW Pro to gain access to the past 30 days of data for over 8000 Wavebouys and Weather Stations around the globe.

Join Pro

Comparision Forecast

View Surf forecast
   
mer. 07/30 3:50 5ft 8s 6s 18 22 mph 1014.7mb 68f 67f
2:50 5.5ft 6s 6s 18 20 mph 1015.3mb 68f 66f
1:50 5ft 8s 5s 16 18 mph 1015.5mb 67f 66f
12:50 5ft 7s 6s 16
mph
1015.9mb 67f 66f
11:50 6ft 6s 6s 16 18 mph 1015.9mb 67f 66f
10:50 5.5ft 6s 6s 16 20 mph 1016mb 67f 66f
9:50 5.5ft 7s 6s 16 18 mph 1015.7mb 67f 66f
8:50 5ft 7s 6s 13 16 mph 1015.9mb 67f 66f
7:50 5ft 6s 6s 16 18 mph 1015.2mb 67f 66f
6:50 5ft 7s 6s 18 20 mph 1015.1mb 67f 66f
5:50 5ft 10s 6s 18 20 mph 1014.6mb 67f 66f
4:50 4.5ft 9s 6s 16 18 mph 1014.9mb 67f 66f
3:50 5ft 10s 6s 11 13 mph 1014.6mb 67f 66f
2:50 5ft 9s 5s 16 18 mph 1014.5mb 67f 66f
1:50 5ft 9s 6s 18 20 mph 1015mb 67f 66f
12:50 5ft 8s 6s 16 20 mph 1015.1mb 67f 66f
mar. 07/29 11:50 5ft 5s 6s 18 20 mph 1015.1mb 67f 66f
10:50 5ft 8s 5s 18 20 mph 1015.6mb 67f 66f
9:50 4.5ft 9s 5s 18 20 mph 1015.8mb 67f 66f
8:50 4.5ft 10s 5s 18 22 mph 1015.5mb 67f 66f
7:50 4.5ft 14s 6s 18 20 mph 1015.5mb 67f 66f
6:50 5ft 14s 6s 18 22 mph 1015.1mb 67f 66f
5:50 4.5ft 8s 5s 18 20 mph 1015.6mb 67f 67f
4:50 4.5ft 8s 6s 16 20 mph 1015.7mb 67f 66f
3:50 4.5ft 9s 6s 13 18 mph 1016.3mb 67f 67f
2:50 4.5ft 12s 6s 13
mph
1016.7mb 67f 67f
1:50 5ft 8s 6s 13 16 mph 1017mb 67f 67f
12:50 5ft 8s 6s 13 16 mph 1017.5mb 67f 66f
11:50 4.5ft 8s 6s 13 16 mph 1017.2mb 67f 66f
10:50 4.5ft 12s 6s 16 18 mph 1017.4mb 67f 66f
9:50 4.5ft 14s 7s 16 18 mph 1017.7mb 67f 65f
8:50 4.5ft 13s 7s 13 16 mph 1018.4mb 67f 65f
7:50 4.5ft 9s 7s 13 16 mph 1018.2mb 67f 65f
6:50 4ft 9s 6s 11 13 mph 1017.8mb 67f 65f
5:50 4ft 9s 7s 13 16 mph 1016.8mb 67f 66f
4:50 4ft 8s 7s 11 13 mph 1017.1mb 67f 66f
3:50 4ft 14s 6s 9 11 mph 1017.1mb 67f 66f
2:50 4ft 8s 6s 11
mph
1017mb 67f 67f
1:50 4ft 14s 6s 11 13 mph 1017mb 67f 66f
12:50 4ft 8s 6s 11 13 mph 1017.2mb 67f 66f
lun. 07/28 11:50 4.5ft 8s 6s 11 13 mph 1017.5mb 67f 66f
10:50 4.5ft 14s 6s 11 13 mph 1017.8mb 67f 67f
9:50 4.5ft 14s 6s 11 16 mph 1017.4mb 67f 67f
8:50 3.5ft 8s 6s 13 18 mph 1016.6mb 67f 67f
7:50 4ft 8s 6s 16 18 mph 1016.2mb 67f 67f
6:50 4ft 14s 6s 16 18 mph 1016.3mb 67f 67f
5:50 4ft 14s 7s 13 16 mph 1016.5mb 67f 67f
4:50 4.5ft 8s 7s 13 16 mph 1017.1mb 67f 67f
3:50 4ft 8s 7s 11 13 mph 1017.6mb 67f 67f
2:50 4.5ft 8s 7s 9 11 mph 1018mb 67f 67f
1:50 4.5ft 8s 7s 4 7 mph 1018.4mb 67f 67f
12:50 4.5ft 8s 7s 7 9 mph 1018.6mb 67f 67f
11:50 5ft 14s 7s 7 9 mph 1018.8mb 67f 66f
10:50 4.5ft 8s 7s 7 9 mph 1018.6mb 67f 66f
9:50 4.5ft 14s 8s 4 7 mph 1019mb 67f 66f
8:50 5ft 9s 8s 9 11 mph 1018mb 67f 66f
7:50 4.5ft 14s 8s 11
mph
1017.6mb 67f 66f
6:50 4.5ft 8s 8s 7 9 mph 1017.6mb 67f 66f
5:50 4.5ft 8s 8s 7 9 mph 1017.3mb 67f 66f
4:50 4.5ft 15s 7s 7 9 mph 1017.2mb 67f 66f
3:50 4ft 8s 7s 9 11 mph 1016.5mb 67f 66f
2:50 4.5ft 8s 7s 11
mph
1016.4mb 67f 66f
1:50 4.5ft 8s 7s 13
mph
1016.4mb 67f 66f
12:50 4.5ft 8s 7s 11
mph
1016.8mb 67f 66f
dim. 07/27 11:50 4.5ft 15s 7s 9 11 mph 1016.6mb 67f 66f
10:50 4.5ft 8s 7s 9 11 mph 1016.3mb 67f 66f
9:50 4.5ft 8s 6s 4 7 mph 1016.3mb 67f 66f
8:50 4.5ft 8s 6s 11 13 mph 1015.1mb 67f 66f
7:50 4.5ft 14s 7s 13 16 mph 1014.5mb 67f 66f
6:50 4ft 14s 6s 9 11 mph 1015mb 67f 66f
5:50 4ft 8s 6s 11 13 mph 1014.6mb 67f 66f
4:50 4.5ft 8s 8s 18 22 mph 1013.5mb 67f 66f
3:50 4.5ft 8s 8s 11 13 mph 1015mb 67f 66f
2:50 5ft 9s 7s 4 7 mph 1016.5mb 67f 65f
1:50 5ft 9s 8s 2 4 mph 1017.5mb 67f 65f
12:50 5ft 9s 8s 2 4 mph 1017.4mb 67f 65f
11:50 5ft 9s 8s 9 11 mph 1016.7mb 66f 65f
10:50 5ft 10s 8s 7 9 mph 1016.6mb 67f 65f
9:50 5.5ft 9s 8s 7 11 mph 1016.6mb 67f 65f
8:50 5.5ft 9s 8s 4 9 mph 1016.8mb 67f 65f
7:50 5ft 9s 8s 7
mph
1016.2mb 67f 64f
6:50 5ft 9s 8s 4 7 mph 1015.6mb 67f 64f
5:50 5ft 10s 8s 7 11 mph 1015.1mb 66f 64f
4:50 5ft 10s 8s 7 11 mph 1014.9mb 66f 64f
3:50 5.5ft 10s 8s 9 11 mph 1014.9mb 66f 64f
2:50 5.5ft 10s 8s 7 9 mph 1015.1mb 66f 65f
1:50 6ft 10s 8s 4 9 mph 1015.5mb 67f 64f
12:50 5.5ft 10s 8s 4 7 mph 1015.6mb 67f 64f